createdAt,value
2023-02-11T00:00:42.621Z,102805.55
2023-02-11T00:03:09.880Z,102801.70
2023-02-11T00:05:36.637Z,102800.09
2023-02-11T00:08:03.729Z,102799.40
2023-02-11T00:10:30.454Z,102794.27
2023-02-11T00:12:57.083Z,102792.45
2023-02-11T00:15:23.682Z,102790.65
2023-02-11T00:17:50.394Z,102791.30
2023-02-11T00:20:17.239Z,102797.01
2023-02-11T00:22:43.878Z,102802.45
2023-02-11T00:25:10.521Z,102799.10
2023-02-11T00:27:37.629Z,102800.67
2023-02-11T00:30:05.418Z,102800.48
2023-02-11T00:32:32.204Z,102793.21
2023-02-11T00:34:58.873Z,102792.79
2023-02-11T00:37:25.561Z,102791.98
2023-02-11T00:39:52.292Z,102790.32
2023-02-11T00:42:18.892Z,102785.70
2023-02-11T00:44:45.656Z,102782.45
2023-02-11T00:47:12.560Z,102782.37
2023-02-11T00:49:40.478Z,102786.23
2023-02-11T00:52:07.378Z,102784.42
2023-02-11T00:54:34.596Z,102785.14
2023-02-11T00:57:01.433Z,102786.58
2023-02-11T00:59:28.371Z,102785.15
2023-02-11T01:01:55.077Z,102785.50
2023-02-11T01:04:21.808Z,102786.02
2023-02-11T01:06:52.235Z,102781.52
2023-02-11T01:09:21.216Z,102777.69
2023-02-11T01:11:48.261Z,102778.42
2023-02-11T01:14:15.062Z,102777.70
2023-02-11T01:16:42.580Z,102783.76
2023-02-11T01:19:09.817Z,102783.52
2023-02-11T01:21:36.717Z,102782.60
2023-02-11T01:24:03.645Z,102783.77
2023-02-11T01:26:30.398Z,102791.66
2023-02-11T01:29:00.140Z,102788.66
2023-02-11T01:31:27.890Z,102781.73
2023-02-11T01:33:54.674Z,102783.51
2023-02-11T01:36:21.320Z,102789.35
2023-02-11T01:38:49.932Z,102790.70
2023-02-11T01:41:16.746Z,102788.08
2023-02-11T01:43:50.160Z,102783.74
2023-02-11T01:46:31.930Z,102780.05
2023-02-11T01:49:07.432Z,102775.61
2023-02-11T01:51:39.491Z,102770.42
2023-02-11T01:54:27.709Z,102774.26
2023-02-11T01:57:17.123Z,102774.14
2023-02-11T01:59:54.889Z,102774.57
2023-02-11T02:02:27.285Z,102769.78
2023-02-11T02:04:57.564Z,102772.12
2023-02-11T02:07:46.078Z,102775.02
2023-02-11T02:10:18.840Z,102772.63
2023-02-11T02:12:46.371Z,102770.38
2023-02-11T02:15:20.447Z,102770.02
2023-02-11T02:17:58.759Z,102772.86
2023-02-11T02:20:47.123Z,102774.30
2023-02-11T02:23:39.747Z,102779.05
2023-02-11T02:26:31.400Z,102773.67
2023-02-11T02:29:19.299Z,102776.52
2023-02-11T02:32:03.853Z,102772.83
2023-02-11T02:34:42.150Z,102770.07
2023-02-11T02:37:17.381Z,102766.80
2023-02-11T02:39:46.612Z,102766.94
2023-02-11T02:42:14.517Z,102769.89
2023-02-11T02:44:41.250Z,102768.13
2023-02-11T02:47:07.868Z,102757.10
2023-02-11T02:49:34.498Z,102751.20
2023-02-11T02:52:18.550Z,102753.52
2023-02-11T02:55:11.773Z,102752.69
2023-02-11T02:57:50.415Z,102747.04
2023-02-11T03:00:23.561Z,102744.08
2023-02-11T03:02:59.386Z,102742.80
2023-02-11T03:05:45.256Z,102741.53
2023-02-11T03:08:30.559Z,102738.33
2023-02-11T03:10:59.225Z,102728.48
2023-02-11T03:13:33.571Z,102729.02
2023-02-11T03:16:08.538Z,102733.91
2023-02-11T03:18:38.249Z,102733.65
2023-02-11T03:21:07.266Z,102728.91
2023-02-11T03:23:41.361Z,102727.98
2023-02-11T03:26:10.403Z,102728.16
2023-02-11T03:28:52.579Z,102728.60
2023-02-11T03:31:32.892Z,102725.83
2023-02-11T03:34:08.750Z,102713.95
2023-02-11T03:37:04.378Z,102712.41
2023-02-11T03:39:37.770Z,102715.08
2023-02-11T03:42:08.705Z,102717.77
2023-02-11T03:44:42.092Z,102714.16
2023-02-11T03:47:12.443Z,102708.36
2023-02-11T03:49:42.540Z,102708.98
2023-02-11T03:52:11.564Z,102709.77
2023-02-11T03:54:42.253Z,102705.33
2023-02-11T03:57:09.237Z,102698.17
2023-02-11T03:59:51.374Z,102693.96
2023-02-11T04:02:18.748Z,102699.41
2023-02-11T04:04:46.375Z,102701.14
2023-02-11T04:07:13.236Z,102696.02
2023-02-11T04:09:39.894Z,102693.91
2023-02-11T04:12:06.927Z,102693.16
2023-02-11T04:14:33.709Z,102691.89
2023-02-11T04:17:00.371Z,102686.92
2023-02-11T04:19:27.042Z,102684.05
2023-02-11T04:21:53.632Z,102687.45
2023-02-11T04:24:20.296Z,102692.42
2023-02-11T04:26:47.049Z,102696.90
2023-02-11T04:29:13.687Z,102689.41
2023-02-11T04:31:40.506Z,102680.52
2023-02-11T04:34:07.114Z,102678.22
2023-02-11T04:36:33.794Z,102679.96
2023-02-11T04:39:00.524Z,102678.45
2023-02-11T04:41:27.327Z,102673.42
2023-02-11T04:43:53.938Z,102670.55
2023-02-11T04:46:20.779Z,102674.62
2023-02-11T04:48:47.475Z,102673.44
2023-02-11T04:51:14.342Z,102671.06
2023-02-11T04:53:41.334Z,102671.91
2023-02-11T04:56:08.165Z,102670.09
2023-02-11T04:58:34.936Z,102668.39
2023-02-11T05:01:14.064Z,102670.92
2023-02-11T05:03:41.232Z,102670.27
2023-02-11T05:06:09.770Z,102669.67
2023-02-11T05:08:36.382Z,102672.75
2023-02-11T05:11:03.196Z,102670.81
2023-02-11T05:13:30.189Z,102670.31
2023-02-11T05:15:57.075Z,102668.39
2023-02-11T05:18:24.086Z,102667.38
2023-02-11T05:20:50.720Z,102665.97
2023-02-11T05:23:17.371Z,102665.94
2023-02-11T05:25:43.993Z,102664.55
2023-02-11T05:28:10.680Z,102665.55
2023-02-11T05:30:37.420Z,102667.95
2023-02-11T05:33:04.116Z,102670.54
2023-02-11T05:35:30.763Z,102669.65
2023-02-11T05:37:57.403Z,102664.82
2023-02-11T05:40:24.037Z,102664.36
2023-02-11T05:42:50.705Z,102667.88
2023-02-11T05:45:17.336Z,102667.36
2023-02-11T05:47:43.922Z,102662.30
2023-02-11T05:50:10.546Z,102659.55
2023-02-11T05:52:37.238Z,102663.70
2023-02-11T05:55:04.403Z,102660.05
2023-02-11T05:57:30.997Z,102658.10
2023-02-11T05:59:57.647Z,102658.98
2023-02-11T06:02:24.449Z,102660.92
2023-02-11T06:04:51.129Z,102661.16
2023-02-11T06:07:19.705Z,102657.50
2023-02-11T06:09:46.335Z,102653.56
2023-02-11T06:12:13.119Z,102656.16
2023-02-11T06:14:39.906Z,102655.44
2023-02-11T06:17:06.619Z,102649.31
2023-02-11T06:19:33.349Z,102644.70
2023-02-11T06:22:00.108Z,102645.87
2023-02-11T06:24:51.087Z,102644.45
2023-02-11T06:27:13.994Z,102636.52
2023-02-11T06:29:40.741Z,102635.58
2023-02-11T06:32:10.089Z,102641.23
2023-02-11T06:34:42.790Z,102642.90
2023-02-11T06:37:09.428Z,102642.86
2023-02-11T06:39:36.092Z,102643.84
2023-02-11T06:42:02.800Z,102648.09
2023-02-11T06:44:29.401Z,102646.92
2023-02-11T06:46:55.955Z,102643.13
2023-02-11T06:49:22.582Z,102646.63
2023-02-11T06:51:49.188Z,102651.95
2023-02-11T06:54:15.913Z,102659.14
2023-02-11T06:56:42.554Z,102654.49
2023-02-11T06:59:12.944Z,102652.35
2023-02-11T07:01:39.565Z,102650.49
2023-02-11T07:04:06.897Z,102654.23
2023-02-11T07:06:34.020Z,102657.23
2023-02-11T07:09:00.723Z,102656.02
2023-02-11T07:11:29.151Z,102659.03
2023-02-11T07:14:02.839Z,102656.98
2023-02-11T07:16:29.977Z,102657.91
2023-02-11T07:18:56.592Z,102659.15
2023-02-11T07:21:24.389Z,102661.05
2023-02-11T07:23:52.017Z,102662.41
2023-02-11T07:26:23.009Z,102658.67
2023-02-11T07:28:50.954Z,102660.08
2023-02-11T07:31:27.837Z,102663.52
2023-02-11T07:33:57.028Z,102665.41
2023-02-11T07:36:23.819Z,102664.51
2023-02-11T07:38:50.545Z,102664.32
2023-02-11T07:41:21.345Z,102666.38
2023-02-11T07:43:48.427Z,102672.33
2023-02-11T07:46:20.896Z,102670.65
2023-02-11T07:48:47.758Z,102666.09
2023-02-11T07:51:20.519Z,102668.16
2023-02-11T07:53:47.601Z,102672.51
2023-02-11T07:56:15.879Z,102669.61
2023-02-11T07:58:43.686Z,102665.62
2023-02-11T08:01:12.875Z,102670.27
2023-02-11T08:03:41.397Z,102669.99
2023-02-11T08:06:11.222Z,102665.89
2023-02-11T08:08:37.940Z,102665.61
2023-02-11T08:11:13.155Z,102673.77
2023-02-11T08:13:40.395Z,102676.42
2023-02-11T08:16:07.998Z,102677.95
2023-02-11T08:18:35.365Z,102670.83
2023-02-11T08:21:06.739Z,102673.66
2023-02-11T08:23:33.924Z,102677.33
2023-02-11T08:26:05.376Z,102676.38
2023-02-11T08:28:32.219Z,102674.99
2023-02-11T08:31:04.637Z,102678.33
2023-02-11T08:33:31.296Z,102678.04
2023-02-11T08:35:57.947Z,102675.68
2023-02-11T08:38:24.543Z,102674.80
2023-02-11T08:40:51.429Z,102677.27
2023-02-11T08:43:18.314Z,102674.27
2023-02-11T08:45:45.070Z,102675.64
2023-02-11T08:48:11.682Z,102677.44
2023-02-11T08:50:39.782Z,102680.23
2023-02-11T08:53:06.423Z,102676.29
2023-02-11T08:55:33.033Z,102675.85
2023-02-11T08:57:59.661Z,102677.04
2023-02-11T09:00:26.305Z,102680.99
2023-02-11T09:02:53.605Z,102693.62
2023-02-11T09:05:20.208Z,102692.30
2023-02-11T09:07:46.838Z,102694.05
2023-02-11T09:10:13.510Z,102695.38
2023-02-11T09:12:40.148Z,102689.95
2023-02-11T09:15:07.259Z,102693.63
2023-02-11T09:17:33.921Z,102699.16
2023-02-11T09:20:00.814Z,102696.55
2023-02-11T09:22:27.468Z,102698.45
2023-02-11T09:24:54.115Z,102698.45
2023-02-11T09:27:20.866Z,102703.92
2023-02-11T09:29:47.541Z,102695.98
2023-02-11T09:32:14.341Z,102693.34
2023-02-11T09:34:41.426Z,102695.71
2023-02-11T09:37:08.096Z,102691.65
2023-02-11T09:39:34.723Z,102689.51
2023-02-11T09:42:07.074Z,102687.20
2023-02-11T09:44:35.504Z,102691.05
2023-02-11T09:47:06.359Z,102694.02
2023-02-11T09:49:59.056Z,102690.94
2023-02-11T09:52:44.008Z,102695.47
2023-02-11T09:55:37.744Z,102693.06
2023-02-11T09:58:12.613Z,102694.88
2023-02-11T10:00:52.907Z,102699.70
2023-02-11T10:03:48.770Z,102699.31
2023-02-11T10:06:40.286Z,102698.63
2023-02-11T10:09:48.112Z,102701.80
2023-02-11T10:12:20.649Z,102696.21
2023-02-11T10:15:06.036Z,102697.14
2023-02-11T10:17:48.186Z,102701.13
2023-02-11T10:20:20.929Z,102701.99
2023-02-11T10:22:54.568Z,102701.09
2023-02-11T10:25:36.579Z,102700.73
2023-02-11T10:28:19.700Z,102701.26
2023-02-11T10:30:53.104Z,102699.73
2023-02-11T10:33:47.911Z,102690.91
2023-02-11T10:36:17.577Z,102694.05
2023-02-11T10:38:45.289Z,102697.90
2023-02-11T10:41:26.285Z,102701.08
2023-02-11T10:43:53.035Z,102696.39
2023-02-11T10:46:24.366Z,102701.40
2023-02-11T10:48:54.020Z,102706.05
2023-02-11T10:51:25.556Z,102702.90
2023-02-11T10:54:04.276Z,102696.56
2023-02-11T10:56:34.649Z,102688.97
2023-02-11T10:59:20.343Z,102679.95
2023-02-11T11:02:00.979Z,102676.11
2023-02-11T11:04:30.904Z,102665.58
2023-02-11T11:07:18.163Z,102663.55
2023-02-11T11:10:02.558Z,102665.10
2023-02-11T11:12:31.699Z,102656.65
2023-02-11T11:14:59.936Z,102653.21
2023-02-11T11:17:29.897Z,102650.55
2023-02-11T11:20:20.414Z,102645.58
2023-02-11T11:22:52.762Z,102630.80
2023-02-11T11:25:30.614Z,102618.77
2023-02-11T11:28:01.015Z,102613.48
2023-02-11T11:30:34.059Z,102610.20
2023-02-11T11:33:02.026Z,102612.40
2023-02-11T11:35:33.066Z,102605.79
2023-02-11T11:38:05.403Z,102601.41
2023-02-11T11:40:34.218Z,102605.98
2023-02-11T11:43:30.163Z,102608.04
2023-02-11T11:45:59.688Z,102610.15
2023-02-11T11:48:40.334Z,102607.52
2023-02-11T11:51:12.159Z,102605.67
2023-02-11T11:53:38.796Z,102606.37
2023-02-11T11:56:19.978Z,102599.10
2023-02-11T11:58:47.225Z,102599.54
2023-02-11T12:01:38.177Z,102599.16
2023-02-11T12:04:28.557Z,102593.46
2023-02-11T12:07:25.714Z,102591.77
2023-02-11T12:10:15.162Z,102586.75
2023-02-11T12:12:55.924Z,102585.95
2023-02-11T12:15:30.035Z,102586.22
2023-02-11T12:18:24.828Z,102581.44
2023-02-11T12:21:04.344Z,102579.14
2023-02-11T12:24:07.434Z,102574.05
2023-02-11T12:26:53.338Z,102571.63
2023-02-11T12:29:31.942Z,102567.96
2023-02-11T12:32:25.665Z,102566.49
2023-02-11T12:35:01.661Z,102560.67
2023-02-11T12:37:49.600Z,102561.30
2023-02-11T12:40:20.135Z,102555.80
2023-02-11T12:43:18.032Z,102553.99
2023-02-11T12:46:00.955Z,102555.39
2023-02-11T12:49:00.294Z,102550.44
2023-02-11T12:51:42.101Z,102540.52
2023-02-11T12:54:21.727Z,102537.95
2023-02-11T12:57:07.456Z,102525.95
2023-02-11T13:00:11.873Z,102525.61
2023-02-11T13:02:49.624Z,102520.38
2023-02-11T13:05:25.053Z,102508.94
2023-02-11T13:07:56.038Z,102509.48
2023-02-11T13:10:28.154Z,102510.59
2023-02-11T13:13:16.088Z,102510.38
2023-02-11T13:15:58.697Z,102511.05
2023-02-11T13:19:16.833Z,102506.81
2023-02-11T13:22:11.424Z,102507.79
2023-02-11T13:25:06.151Z,102505.23
2023-02-11T13:27:44.034Z,102503.09
2023-02-11T13:30:28.182Z,102502.88
2023-02-11T13:32:54.851Z,102496.08
2023-02-11T13:35:32.329Z,102492.19
2023-02-11T13:38:01.535Z,102486.96
2023-02-11T13:40:39.599Z,102485.60
2023-02-11T13:43:07.547Z,102486.98
2023-02-11T13:45:38.641Z,102484.92
2023-02-11T13:48:13.639Z,102482.23
2023-02-11T13:50:48.481Z,102480.16
2023-02-11T13:53:17.140Z,102478.69
2023-02-11T13:55:47.389Z,102473.05
2023-02-11T13:58:13.969Z,102471.19
2023-02-11T14:00:40.596Z,102466.82
2023-02-11T14:03:32.202Z,102462.27
2023-02-11T14:06:26.742Z,102463.19
2023-02-11T14:09:09.186Z,102461.45
2023-02-11T14:11:41.902Z,102456.39
2023-02-11T14:14:16.245Z,102446.31
2023-02-11T14:16:58.258Z,102448.56
2023-02-11T14:19:30.797Z,102448.04
2023-02-11T14:22:04.318Z,102449.10
2023-02-11T14:24:33.948Z,102442.92
2023-02-11T14:27:00.483Z,102441.94
2023-02-11T14:29:58.290Z,102439.75
2023-02-11T14:32:56.008Z,102437.59
2023-02-11T14:35:41.738Z,102431.67
2023-02-11T14:38:35.796Z,102426.22
2023-02-11T14:41:22.480Z,102424.52
2023-02-11T14:43:53.069Z,102421.67
2023-02-11T14:46:22.327Z,102424.02
2023-02-11T14:48:53.396Z,102414.81
2023-02-11T14:51:27.833Z,102410.64
2023-02-11T14:54:15.289Z,102412.27
2023-02-11T14:56:42.458Z,102409.38
2023-02-11T14:59:21.205Z,102406.74
2023-02-11T15:01:51.211Z,102406.04
2023-02-11T15:04:32.874Z,102404.90
2023-02-11T15:07:04.845Z,102401.01
2023-02-11T15:09:41.297Z,102398.32
2023-02-11T15:12:20.243Z,102398.20
2023-02-11T15:14:49.590Z,102397.54
2023-02-11T15:17:22.242Z,102400.29
2023-02-11T15:19:53.275Z,102396.33
2023-02-11T15:22:24.070Z,102393.16
2023-02-11T15:25:03.999Z,102388.96
2023-02-11T15:27:42.393Z,102385.20
2023-02-11T15:30:24.591Z,102387.45
2023-02-11T15:33:00.390Z,102385.37
2023-02-11T15:35:28.800Z,102381.77
2023-02-11T15:37:57.431Z,102377.41
2023-02-11T15:40:30.170Z,102372.86
2023-02-11T15:42:59.950Z,102376.86
2023-02-11T15:45:32.694Z,102374.73
2023-02-11T15:48:21.676Z,102374.09
2023-02-11T15:50:52.966Z,102370.84
2023-02-11T15:53:28.953Z,102371.98
2023-02-11T15:56:17.619Z,102378.13
2023-02-11T15:58:47.619Z,102379.23
2023-02-11T16:01:14.499Z,102373.13
2023-02-11T16:03:43.107Z,102370.51
2023-02-11T16:06:25.005Z,102373.31
2023-02-11T16:09:22.276Z,102376.40
2023-02-11T16:11:48.913Z,102377.38
2023-02-11T16:14:27.836Z,102370.92
2023-02-11T16:16:56.015Z,102370.02
2023-02-11T16:19:25.933Z,102371.48
2023-02-11T16:21:54.396Z,102374.20
2023-02-11T16:24:28.242Z,102370.99
2023-02-11T16:27:03.420Z,102372.18
2023-02-11T16:29:32.489Z,102367.75
2023-02-11T16:32:09.334Z,102371.61
2023-02-11T16:34:37.237Z,102372.34
2023-02-11T16:37:05.554Z,102371.39
2023-02-11T16:39:32.622Z,102375.48
2023-02-11T16:42:00.444Z,102377.69
2023-02-11T16:44:28.207Z,102374.55
2023-02-11T16:46:55.813Z,102373.19
2023-02-11T16:49:51.926Z,102371.08
2023-02-11T16:52:20.328Z,102371.45
2023-02-11T16:54:46.969Z,102378.79
2023-02-11T16:57:15.879Z,102383.02
2023-02-11T16:59:43.097Z,102381.90
2023-02-11T17:02:22.930Z,102383.70
2023-02-11T17:04:52.815Z,102386.44
2023-02-11T17:07:19.548Z,102391.65
2023-02-11T17:09:46.223Z,102391.81
2023-02-11T17:12:12.873Z,102390.92
2023-02-11T17:14:39.562Z,102393.96
2023-02-11T17:17:06.357Z,102390.80
2023-02-11T17:19:33.011Z,102398.30
2023-02-11T17:21:59.604Z,102401.60
2023-02-11T17:24:26.223Z,102403.23
2023-02-11T17:26:52.996Z,102404.13
2023-02-11T17:29:23.224Z,102403.02
2023-02-11T17:31:53.927Z,102406.69
2023-02-11T17:34:22.672Z,102399.53
2023-02-11T17:36:49.443Z,102405.59
2023-02-11T17:39:16.339Z,102408.64
2023-02-11T17:41:43.023Z,102410.45
2023-02-11T17:44:12.574Z,102407.51
2023-02-11T17:46:39.442Z,102406.63
2023-02-11T17:49:06.147Z,102407.39
2023-02-11T17:51:35.086Z,102405.75
2023-02-11T17:54:04.937Z,102409.09
2023-02-11T17:56:33.271Z,102409.02
2023-02-11T17:59:00.010Z,102410.16
2023-02-11T18:01:28.144Z,102407.17
2023-02-11T18:03:54.947Z,102403.69
2023-02-11T18:06:21.963Z,102398.11
2023-02-11T18:08:49.193Z,102390.69
2023-02-11T18:11:16.438Z,102389.23
2023-02-11T18:13:51.541Z,102390.19
2023-02-11T18:16:18.292Z,102390.42
2023-02-11T18:18:44.992Z,102393.82
2023-02-11T18:21:16.157Z,102395.08
2023-02-11T18:23:43.885Z,102398.02
2023-02-11T18:26:12.792Z,102396.70
2023-02-11T18:28:39.963Z,102397.41
2023-02-11T18:31:07.979Z,102398.64
2023-02-11T18:33:37.244Z,102398.45
2023-02-11T18:36:08.804Z,102400.99
2023-02-11T18:38:36.260Z,102398.80
2023-02-11T18:41:04.186Z,102396.58
2023-02-11T18:43:33.829Z,102394.35
2023-02-11T18:46:02.185Z,102397.05
2023-02-11T18:48:29.205Z,102398.20
2023-02-11T18:50:56.077Z,102399.48
2023-02-11T18:53:25.076Z,102402.67
2023-02-11T18:55:53.710Z,102403.83
2023-02-11T18:58:21.465Z,102398.77
2023-02-11T19:00:49.244Z,102400.08
2023-02-11T19:03:16.638Z,102405.33
2023-02-11T19:05:48.850Z,102404.14
2023-02-11T19:08:15.969Z,102410.49
2023-02-11T19:10:44.861Z,102412.77
2023-02-11T19:13:12.681Z,102410.33
2023-02-11T19:15:46.348Z,102410.89
2023-02-11T19:18:15.033Z,102407.77
2023-02-11T19:20:43.463Z,102402.61
2023-02-11T19:23:11.064Z,102404.09
2023-02-11T19:25:38.236Z,102407.30
2023-02-11T19:28:04.939Z,102406.80
2023-02-11T19:30:31.811Z,102402.73
2023-02-11T19:32:58.429Z,102402.15
2023-02-11T19:35:25.606Z,102401.05
2023-02-11T19:37:52.315Z,102399.43
2023-02-11T19:40:21.227Z,102395.69
2023-02-11T19:42:50.673Z,102398.47
2023-02-11T19:45:17.481Z,102395.31
2023-02-11T19:47:44.469Z,102392.36
2023-02-11T19:50:11.624Z,102391.04
2023-02-11T19:52:39.090Z,102391.13
2023-02-11T19:55:06.394Z,102393.59
2023-02-11T19:57:33.078Z,102394.36
2023-02-11T19:59:59.759Z,102394.27
2023-02-11T20:02:26.410Z,102401.83
2023-02-11T20:04:53.096Z,102405.34
2023-02-11T20:07:19.762Z,102400.35
2023-02-11T20:09:46.364Z,102397.41
2023-02-11T20:12:13.132Z,102394.38
2023-02-11T20:14:39.750Z,102395.02
2023-02-11T20:17:06.492Z,102395.48
2023-02-11T20:19:33.143Z,102398.78
2023-02-11T20:21:59.747Z,102404.85
2023-02-11T20:24:26.590Z,102407.55
2023-02-11T20:26:56.051Z,102404.95
2023-02-11T20:29:24.515Z,102399.05
2023-02-11T20:31:51.259Z,102399.98
2023-02-11T20:34:18.297Z,102398.88
2023-02-11T20:36:51.965Z,102390.41
2023-02-11T20:39:22.025Z,102391.67
2023-02-11T20:41:50.241Z,102395.46
2023-02-11T20:44:16.908Z,102397.19
2023-02-11T20:46:46.839Z,102394.69
2023-02-11T20:49:22.539Z,102398.05
2023-02-11T20:51:50.100Z,102394.83
2023-02-11T20:54:19.424Z,102389.33
2023-02-11T20:56:48.180Z,102387.30
2023-02-11T20:59:16.904Z,102383.45
2023-02-11T21:01:46.509Z,102384.13
2023-02-11T21:04:18.547Z,102384.39
2023-02-11T21:06:47.908Z,102388.61
2023-02-11T21:09:17.431Z,102387.48
2023-02-11T21:11:44.125Z,102387.23
2023-02-11T21:14:12.634Z,102384.15
2023-02-11T21:16:40.121Z,102388.98
2023-02-11T21:19:07.557Z,102384.94
2023-02-11T21:21:38.886Z,102383.30
2023-02-11T21:24:06.914Z,102385.16
2023-02-11T21:26:35.487Z,102385.42
2023-02-11T21:29:03.983Z,102383.25
2023-02-11T21:31:32.470Z,102384.36
2023-02-11T21:34:02.083Z,102382.63
2023-02-11T21:36:29.801Z,102381.91
2023-02-11T21:38:56.756Z,102384.67
2023-02-11T21:41:24.870Z,102376.86
2023-02-11T21:43:52.336Z,102372.00
2023-02-11T21:46:20.502Z,102375.44
2023-02-11T21:48:48.191Z,102381.95
2023-02-11T21:51:18.850Z,102383.17
2023-02-11T21:53:46.002Z,102393.30
2023-02-11T21:56:15.321Z,102392.20
2023-02-11T21:58:42.310Z,102395.19
2023-02-11T22:01:20.251Z,102397.56
2023-02-11T22:03:47.319Z,102398.44
2023-02-11T22:06:17.534Z,102398.21
2023-02-11T22:08:44.758Z,102396.95
2023-02-11T22:11:13.365Z,102395.52
2023-02-11T22:13:41.380Z,102390.50
2023-02-11T22:16:11.325Z,102389.54
2023-02-11T22:18:38.327Z,102390.17
2023-02-11T22:21:07.340Z,102387.83
2023-02-11T22:23:34.670Z,102383.95
2023-02-11T22:26:05.886Z,102383.92
2023-02-11T22:28:33.081Z,102388.45
2023-02-11T22:31:00.202Z,102391.93
2023-02-11T22:33:28.682Z,102381.48
2023-02-11T22:36:04.693Z,102379.83
2023-02-11T22:38:33.255Z,102386.64
2023-02-11T22:41:05.087Z,102387.30
2023-02-11T22:43:31.927Z,102390.64
2023-02-11T22:46:03.250Z,102388.56
2023-02-11T22:48:30.390Z,102384.92
2023-02-11T22:50:57.161Z,102381.67
2023-02-11T22:53:25.646Z,102385.58
2023-02-11T22:55:52.605Z,102387.80
2023-02-11T22:58:19.432Z,102387.95
2023-02-11T23:00:46.077Z,102384.54
2023-02-11T23:03:13.469Z,102386.34
2023-02-11T23:05:41.900Z,102385.46
2023-02-11T23:08:10.708Z,102386.39
2023-02-11T23:10:39.820Z,102384.16
2023-02-11T23:13:07.707Z,102385.39
2023-02-11T23:15:38.535Z,102385.86
2023-02-11T23:18:05.461Z,102388.00
2023-02-11T23:20:35.438Z,102390.86
2023-02-11T23:23:03.072Z,102394.54
2023-02-11T23:25:30.261Z,102393.89
2023-02-11T23:27:57.658Z,102388.52
2023-02-11T23:30:24.760Z,102392.39
2023-02-11T23:32:52.328Z,102399.73
2023-02-11T23:35:24.900Z,102401.47
2023-02-11T23:37:54.174Z,102397.55
2023-02-11T23:40:22.733Z,102390.65
2023-02-11T23:42:49.336Z,102386.09
2023-02-11T23:45:16.030Z,102385.73
2023-02-11T23:47:42.716Z,102386.44
2023-02-11T23:50:10.199Z,102382.23
2023-02-11T23:52:37.562Z,102385.70
2023-02-11T23:55:05.051Z,102388.14
2023-02-11T23:57:33.024Z,102392.38
2023-02-11T23:59:59.669Z,102389.66
